Time;durP1;ratioP1;P1;durP2;ratioP2;P2;SDS_P1;SDS_P2;PMS_P1;PMS_P2;Temp;Humidity;BMP_temperature;BMP_pressure;BME280_temperature;BME280_humidity;BME280_pressure;Samples;Min_cycle;Max_cycle;Signal;HPM_P1;HPM_P2
2024/01/19 00:02:25;;;;;;;13.40;11.25;;;3.20;99.10;;;;;;5079831;28;20295;-34
2024/01/19 00:04:51;;;;;;;16.50;12.33;;;3.20;99.20;;;;;;5092776;28;20273;-34
2024/01/19 00:07:20;;;;;;;15.93;12.25;;;3.20;99.20;;;;;;5076346;28;20441;-37
2024/01/19 00:09:46;;;;;;;16.00;12.57;;;3.20;99.20;;;;;;5061638;28;20207;-36
2024/01/19 00:12:12;;;;;;;15.40;11.38;;;3.20;99.20;;;;;;5035397;28;20303;-33
2024/01/19 00:14:39;;;;;;;18.17;12.70;;;3.20;99.20;;;;;;5069764;28;20870;-34
2024/01/19 00:17:05;;;;;;;15.45;12.32;;;3.20;99.20;;;;;;5084922;28;20206;-38
2024/01/19 00:19:35;;;;;;;17.00;11.90;;;3.20;99.20;;;;;;5070922;28;20976;-32
2024/01/19 00:22:01;;;;;;;15.15;11.48;;;3.20;99.20;;;;;;5064137;28;20337;-32
2024/01/19 00:24:27;;;;;;;18.15;13.68;;;3.20;99.20;;;;;;5061997;28;21000;-35
2024/01/19 00:26:54;;;;;;;17.90;13.10;;;3.20;99.20;;;;;;5084264;28;20203;-32
2024/01/19 00:29:21;;;;;;;16.20;12.15;;;3.20;99.20;;;;;;5064663;28;20445;-33
2024/01/19 00:31:48;;;;;;;15.45;11.90;;;3.20;99.20;;;;;;5081894;28;20179;-38
2024/01/19 00:34:16;;;;;;;16.30;12.55;;;3.20;99.10;;;;;;5061901;28;20217;-36
2024/01/19 00:36:43;;;;;;;17.35;12.63;;;3.20;99.20;;;;;;5079519;28;20658;-31
2024/01/19 00:39:09;;;;;;;17.50;12.95;;;3.20;99.10;;;;;;5079232;28;21034;-36
2024/01/19 00:41:35;;;;;;;16.63;12.75;;;3.20;99.10;;;;;;5090710;28;20562;-36
2024/01/19 00:44:01;;;;;;;18.40;12.77;;;3.20;99.10;;;;;;5082030;28;20219;-34
2024/01/19 00:46:30;;;;;;;16.20;13.05;;;3.20;99.10;;;;;;5088446;28;20555;-37
2024/01/19 00:48:58;;;;;;;16.83;13.00;;;3.20;99.00;;;;;;5060942;28;20297;-33
2024/01/19 00:51:29;;;;;;;18.70;13.95;;;3.20;99.00;;;;;;5062904;28;20194;-32
2024/01/19 00:53:57;;;;;;;16.17;11.88;;;3.20;99.00;;;;;;5054825;28;20184;-32
2024/01/19 00:56:23;;;;;;;14.77;12.83;;;3.20;99.10;;;;;;5082149;28;20272;-33
2024/01/19 00:58:52;;;;;;;15.00;11.27;;;3.20;99.10;;;;;;5078810;28;21037;-32
2024/01/19 01:01:20;;;;;;;17.58;13.00;;;3.20;99.10;;;;;;5062712;28;20191;-37
2024/01/19 01:03:51;;;;;;;17.27;13.23;;;3.20;99.10;;;;;;5087601;28;20610;-36
2024/01/19 01:06:18;;;;;;;15.15;12.02;;;3.20;99.10;;;;;;5067621;28;20448;-35
2024/01/19 01:08:46;;;;;;;17.38;12.07;;;3.20;99.10;;;;;;5069420;28;20929;-32
2024/01/19 01:11:14;;;;;;;16.83;13.23;;;3.20;99.10;;;;;;5081694;28;20228;-34
2024/01/19 01:13:40;;;;;;;17.85;13.82;;;3.20;99.10;;;;;;5084270;28;20464;-33
2024/01/19 01:16:06;;;;;;;16.40;12.18;;;3.20;99.10;;;;;;5080763;28;20729;-34
2024/01/19 01:18:33;;;;;;;16.77;13.20;;;3.10;99.00;;;;;;5044852;28;20194;-36
2024/01/19 01:20:58;;;;;;;16.10;12.05;;;3.20;99.10;;;;;;5082001;28;20456;-32
2024/01/19 01:23:25;;;;;;;17.93;12.90;;;3.10;99.00;;;;;;5061273;28;20221;-37
2024/01/19 01:25:50;;;;;;;18.15;13.27;;;3.10;99.10;;;;;;5083403;28;20993;-34
2024/01/19 01:28:16;;;;;;;16.97;13.43;;;3.20;99.20;;;;;;5049635;28;20183;-35
2024/01/19 01:30:45;;;;;;;15.65;11.75;;;3.20;99.10;;;;;;5080096;28;20440;-38
2024/01/19 01:33:11;;;;;;;17.40;13.10;;;3.10;99.00;;;;;;5085536;28;20199;-37
2024/01/19 01:35:38;;;;;;;22.83;13.00;;;3.20;99.10;;;;;;5067460;28;21273;-35
2024/01/19 01:38:06;;;;;;;16.30;12.57;;;3.10;99.00;;;;;;5079992;28;20591;-32
2024/01/19 01:40:32;;;;;;;20.80;13.90;;;3.10;99.10;;;;;;5060742;28;20257;-35
2024/01/19 01:43:00;;;;;;;19.60;13.15;;;3.10;99.00;;;;;;5079721;28;20277;-37
2024/01/19 01:45:27;;;;;;;18.67;13.18;;;3.10;99.00;;;;;;5065102;28;20179;-35
2024/01/19 01:47:56;;;;;;;19.38;12.38;;;3.10;99.40;;;;;;5083188;28;20199;-36
2024/01/19 01:50:25;;;;;;;16.92;11.85;;;3.10;99.10;;;;;;5047283;28;20464;-38
2024/01/19 01:52:56;;;;;;;20.33;14.93;;;3.10;99.10;;;;;;5059940;28;20186;-36
2024/01/19 01:55:25;;;;;;;20.55;13.23;;;3.10;99.00;;;;;;5081263;28;21029;-33
2024/01/19 01:57:51;;;;;;;18.85;12.90;;;3.10;99.00;;;;;;5060428;28;20273;-37
2024/01/19 02:00:18;;;;;;;21.87;15.80;;;3.10;99.00;;;;;;5035661;28;20214;-34
2024/01/19 02:02:47;;;;;;;20.10;14.20;;;3.10;99.00;;;;;;5092569;28;21226;-36
2024/01/19 02:05:15;;;;;;;19.90;13.40;;;3.10;99.00;;;;;;5062945;28;20183;-34
2024/01/19 02:07:43;;;;;;;20.80;14.65;;;3.10;99.00;;;;;;5062283;28;20185;-34
2024/01/19 02:10:10;;;;;;;21.70;14.10;;;3.20;99.10;;;;;;5077289;28;20207;-36
2024/01/19 02:12:41;;;;;;;22.83;14.32;;;3.10;99.00;;;;;;5082557;28;20416;-34
2024/01/19 02:15:18;;;;;;;20.33;14.60;;;3.10;99.00;;;;;;5072757;28;20191;-35
2024/01/19 02:17:47;;;;;;;24.23;14.38;;;3.10;99.00;;;;;;5080557;28;20663;-30
2024/01/19 02:20:15;;;;;;;24.95;15.02;;;3.10;99.00;;;;;;5082574;28;20238;-32
2024/01/19 02:22:47;;;;;;;21.53;14.33;;;3.10;99.10;;;;;;5077841;28;20293;-31
2024/01/19 02:25:14;;;;;;;20.75;13.90;;;3.10;99.10;;;;;;5080738;28;20500;-31
2024/01/19 02:27:40;;;;;;;17.98;14.18;;;3.10;99.10;;;;;;5084464;28;20710;-37
2024/01/19 02:30:08;;;;;;;19.15;12.75;;;3.10;99.10;;;;;;5052835;28;20207;-32
2024/01/19 02:32:35;;;;;;;28.00;14.27;;;3.10;99.10;;;;;;5051103;28;20195;-34
2024/01/19 02:35:00;;;;;;;23.80;14.90;;;3.10;99.10;;;;;;5091327;28;20274;-33
2024/01/19 02:37:27;;;;;;;22.47;14.43;;;3.10;99.10;;;;;;5082416;28;20270;-36
2024/01/19 02:39:53;;;;;;;21.42;14.07;;;3.10;99.10;;;;;;5086386;28;20460;-36
2024/01/19 02:42:19;;;;;;;20.13;13.50;;;3.10;99.20;;;;;;5081462;28;20215;-35
2024/01/19 02:44:45;;;;;;;22.17;14.20;;;3.10;99.20;;;;;;5057893;28;20436;-31
2024/01/19 02:47:12;;;;;;;24.97;14.27;;;3.10;99.20;;;;;;5086243;28;20187;-35
2024/01/19 02:49:38;;;;;;;20.05;13.30;;;3.10;99.20;;;;;;5056512;28;20438;-33
2024/01/19 02:52:06;;;;;;;21.23;14.13;;;3.10;99.20;;;;;;5085711;28;20559;-32
2024/01/19 02:54:33;;;;;;;22.63;14.87;;;3.10;99.20;;;;;;5073502;28;20182;-34
2024/01/19 02:57:01;;;;;;;26.25;14.98;;;3.10;99.30;;;;;;5051422;28;20521;-34
2024/01/19 02:59:32;;;;;;;27.15;14.98;;;3.10;99.30;;;;;;5046449;28;20243;-33
2024/01/19 03:02:00;;;;;;;23.13;15.32;;;3.10;99.20;;;;;;5085574;28;20209;-33
2024/01/19 03:04:26;;;;;;;25.33;15.63;;;3.10;99.30;;;;;;5088163;28;20206;-33
2024/01/19 03:06:55;;;;;;;23.85;13.88;;;3.10;99.30;;;;;;5081152;28;20179;-34
2024/01/19 03:09:21;;;;;;;27.50;15.43;;;3.10;99.30;;;;;;5083749;28;20684;-31
2024/01/19 03:11:50;;;;;;;20.33;14.15;;;3.10;99.40;;;;;;5062936;28;20275;-31
2024/01/19 03:14:21;;;;;;;23.25;13.98;;;3.10;99.40;;;;;;5067314;28;20249;-33
2024/01/19 03:16:51;;;;;;;23.45;12.98;;;3.10;99.40;;;;;;5060619;28;20178;-32
2024/01/19 03:19:17;;;;;;;26.92;17.17;;;3.10;99.40;;;;;;5080056;28;20195;-38
2024/01/19 03:21:43;;;;;;;26.15;15.55;;;3.10;99.30;;;;;;5060746;28;20546;-36
2024/01/19 03:24:11;;;;;;;24.03;15.30;;;3.10;99.30;;;;;;5081266;28;20191;-33
2024/01/19 03:26:41;;;;;;;25.13;15.23;;;3.10;99.30;;;;;;5063263;28;20501;-32
2024/01/19 03:29:09;;;;;;;23.05;14.52;;;3.10;99.30;;;;;;5063639;28;20298;-37
2024/01/19 03:31:35;;;;;;;27.17;14.13;;;3.10;99.40;;;;;;5149113;22;20188;-31
2024/01/19 03:34:01;;;;;;;25.23;16.95;;;3.10;99.40;;;;;;5063834;28;20250;-36
2024/01/19 03:36:27;;;;;;;28.30;16.25;;;3.10;99.40;;;;;;5066724;28;20817;-35
2024/01/19 03:38:53;;;;;;;26.02;16.67;;;3.10;99.40;;;;;;5069239;28;20191;-35
2024/01/19 03:41:19;;;;;;;30.50;15.47;;;3.10;99.40;;;;;;5099285;28;20215;-33
2024/01/19 03:43:45;;;;;;;26.75;15.70;;;3.10;99.40;;;;;;5086084;28;20460;-35
2024/01/19 03:46:11;;;;;;;29.93;15.90;;;3.10;99.40;;;;;;5085540;28;20228;-34
2024/01/19 03:48:40;;;;;;;24.65;15.70;;;3.10;99.50;;;;;;5098944;28;20444;-32
2024/01/19 03:51:06;;;;;;;24.35;15.55;;;3.10;99.40;;;;;;5088954;28;20227;-33
2024/01/19 03:53:32;;;;;;;27.10;15.47;;;3.10;99.50;;;;;;5087239;28;20980;-33
2024/01/19 03:56:16;;;;;;;27.63;15.75;;;3.10;99.50;;;;;;5085113;28;20480;-40
2024/01/19 03:58:43;;;;;;;25.73;14.90;;;3.10;99.50;;;;;;5054428;28;20309;-28
2024/01/19 04:01:09;;;;;;;33.20;16.55;;;3.10;99.50;;;;;;5078612;28;20555;-28
2024/01/19 04:03:37;;;;;;;26.27;15.40;;;3.10;99.50;;;;;;5060139;28;20214;-27
2024/01/19 04:06:04;;;;;;;30.52;15.60;;;3.10;99.50;;;;;;5074792;28;20188;-28
2024/01/19 04:08:32;;;;;;;24.75;16.17;;;3.10;99.50;;;;;;5055638;28;20930;-28
2024/01/19 04:10:58;;;;;;;28.98;15.13;;;3.10;99.60;;;;;;5044317;28;20328;-28
2024/01/19 04:13:27;;;;;;;27.83;15.43;;;3.10;99.60;;;;;;5079226;28;20695;-28
2024/01/19 04:15:53;;;;;;;27.38;16.10;;;3.00;99.90;;;;;;5076626;28;21132;-28
2024/01/19 04:18:19;;;;;;;27.50;15.80;;;3.10;99.70;;;;;;5079998;28;20195;-28
2024/01/19 04:20:45;;;;;;;27.55;14.88;;;3.10;99.60;;;;;;5066338;28;20249;-28
2024/01/19 04:23:16;;;;;;;25.60;16.27;;;3.10;99.60;;;;;;5057584;28;20272;-28
2024/01/19 04:25:46;;;;;;;26.52;15.82;;;3.10;99.60;;;;;;5082597;28;20232;-28
2024/01/19 04:28:15;;;;;;;29.00;15.57;;;3.10;99.60;;;;;;5060060;28;20179;-28
2024/01/19 04:30:40;;;;;;;28.33;15.95;;;3.10;99.60;;;;;;5043884;28;20441;-28
2024/01/19 04:33:06;;;;;;;26.63;15.03;;;3.10;99.70;;;;;;5060323;28;20186;-28
2024/01/19 04:35:32;;;;;;;30.87;16.03;;;3.10;99.70;;;;;;5078589;28;21006;-28
2024/01/19 04:38:01;;;;;;;25.77;17.00;;;3.10;99.70;;;;;;5083080;28;21143;-28
2024/01/19 04:40:29;;;;;;;26.83;15.52;;;3.10;99.70;;;;;;5060312;28;20900;-28
2024/01/19 04:42:55;;;;;;;34.58;16.15;;;3.10;99.70;;;;;;5073285;28;20199;-27
2024/01/19 04:45:21;;;;;;;27.73;14.23;;;3.10;99.70;;;;;;5059983;28;20768;-27
2024/01/19 04:47:47;;;;;;;24.85;15.00;;;3.10;99.70;;;;;;5059361;28;20429;-28
2024/01/19 04:50:15;;;;;;;27.43;14.07;;;3.10;99.70;;;;;;5081642;28;20203;-28
2024/01/19 04:52:41;;;;;;;25.20;14.75;;;3.10;99.70;;;;;;5060903;28;20456;-28
2024/01/19 04:55:08;;;;;;;29.83;17.10;;;3.10;99.70;;;;;;5061158;28;21130;-28
2024/01/19 04:57:34;;;;;;;23.90;15.90;;;3.10;99.70;;;;;;5053291;28;20445;-28
2024/01/19 05:00:00;;;;;;;27.80;15.68;;;3.10;99.70;;;;;;5048741;28;20306;-28
2024/01/19 05:02:29;;;;;;;26.05;15.10;;;3.10;99.70;;;;;;5057744;28;20218;-28
2024/01/19 05:04:55;;;;;;;31.80;16.77;;;3.10;99.70;;;;;;5058454;28;20278;-28
2024/01/19 05:07:21;;;;;;;25.63;15.20;;;3.10;99.70;;;;;;5056250;28;20233;-28
2024/01/19 05:09:47;;;;;;;26.93;15.50;;;3.10;99.70;;;;;;5037781;28;20461;-28
2024/01/19 05:12:13;;;;;;;29.20;16.48;;;3.10;99.70;;;;;;5057906;28;20448;-27
2024/01/19 05:14:41;;;;;;;28.70;15.65;;;3.10;99.80;;;;;;5057112;28;20772;-28
2024/01/19 05:17:10;;;;;;;29.08;14.55;;;3.10;99.80;;;;;;5053386;28;20674;-27
2024/01/19 05:19:41;;;;;;;24.65;15.52;;;3.10;99.70;;;;;;5056953;28;20203;-27
2024/01/19 05:22:11;;;;;;;30.48;15.35;;;3.10;99.80;;;;;;5056681;28;20277;-27
2024/01/19 05:24:41;;;;;;;22.73;13.65;;;3.10;99.90;;;;;;5055692;28;20253;-28
2024/01/19 05:27:10;;;;;;;24.25;14.82;;;3.10;99.90;;;;;;5031159;28;20278;-28
2024/01/19 05:29:38;;;;;;;25.15;14.23;;;3.10;99.90;;;;;;5058200;28;20207;-27
2024/01/19 05:32:07;;;;;;;31.13;15.98;;;3.10;99.90;;;;;;5057279;28;20717;-27
2024/01/19 05:34:37;;;;;;;24.45;14.75;;;3.10;99.90;;;;;;5057321;28;20192;-28
2024/01/19 05:37:04;;;;;;;26.45;14.65;;;3.10;99.90;;;;;;5056783;28;20179;-28
2024/01/19 05:39:30;;;;;;;30.42;14.90;;;3.10;99.90;;;;;;5056221;28;20191;-28
2024/01/19 05:41:56;;;;;;;25.48;14.32;;;3.10;99.90;;;;;;5056174;28;20180;-27
2024/01/19 05:44:22;;;;;;;27.57;15.03;;;3.10;99.90;;;;;;5057376;28;20195;-28
2024/01/19 05:46:48;;;;;;;24.00;15.27;;;3.10;99.90;;;;;;5055420;28;20441;-29
2024/01/19 05:49:16;;;;;;;29.33;16.13;;;3.10;99.90;;;;;;5056751;28;20537;-28
2024/01/19 05:51:43;;;;;;;29.27;15.43;;;3.10;99.90;;;;;;5057499;28;20202;-28
2024/01/19 05:54:09;;;;;;;31.58;15.02;;;3.10;99.90;;;;;;5039418;28;20202;-28
2024/01/19 05:56:35;;;;;;;32.10;16.10;;;3.10;99.90;;;;;;5060586;28;20788;-27
2024/01/19 05:59:01;;;;;;;29.73;16.83;;;3.10;99.90;;;;;;5086568;28;20540;-27
2024/01/19 06:01:27;;;;;;;29.57;16.27;;;3.10;99.90;;;;;;5077102;28;20425;-27
2024/01/19 06:03:53;;;;;;;23.70;13.90;;;3.10;99.90;;;;;;5058819;28;20956;-28
2024/01/19 06:06:21;;;;;;;28.73;13.48;;;3.10;99.90;;;;;;5055118;28;20487;-28
2024/01/19 06:08:50;;;;;;;25.60;14.88;;;3.10;99.90;;;;;;5074920;28;20658;-28
2024/01/19 06:11:20;;;;;;;26.98;13.18;;;3.10;99.90;;;;;;5068774;28;20299;-28
2024/01/19 06:13:50;;;;;;;27.08;16.23;;;3.10;99.90;;;;;;5075637;28;20185;-28
2024/01/19 06:16:19;;;;;;;22.95;14.35;;;3.10;99.90;;;;;;5081861;28;20257;-28
2024/01/19 06:18:45;;;;;;;22.48;14.05;;;3.10;99.90;;;;;;5056961;28;20207;-27
2024/01/19 06:21:13;;;;;;;26.83;15.47;;;3.10;99.90;;;;;;5075423;28;20183;-27
2024/01/19 06:23:44;;;;;;;26.85;14.85;;;3.10;99.90;;;;;;5053619;28;20488;-27
2024/01/19 06:26:11;;;;;;;24.50;13.55;;;3.10;99.90;;;;;;5084421;28;20206;-27
2024/01/19 06:28:38;;;;;;;24.27;13.98;;;3.10;99.90;;;;;;5077656;28;20888;-27
2024/01/19 06:31:07;;;;;;;19.65;13.13;;;3.10;99.90;;;;;;5073031;28;20212;-28
2024/01/19 06:33:37;;;;;;;24.88;13.85;;;3.10;99.90;;;;;;5058801;28;20234;-27
2024/01/19 06:36:17;;;;;;;21.08;13.13;;;3.10;99.90;;;;;;5078440;28;20196;-28
2024/01/19 06:38:46;;;;;;;27.30;13.48;;;3.10;99.90;;;;;;5061976;28;21425;-28
2024/01/19 06:41:12;;;;;;;21.13;13.55;;;3.10;99.90;;;;;;5046550;28;20632;-28
2024/01/19 06:43:43;;;;;;;23.35;14.82;;;3.10;99.90;;;;;;5063329;28;20260;-28
2024/01/19 06:46:09;;;;;;;24.23;13.23;;;3.10;99.90;;;;;;5062240;28;20183;-27
2024/01/19 06:48:35;;;;;;;23.77;14.00;;;3.10;99.90;;;;;;5062157;28;21050;-27
2024/01/19 06:51:01;;;;;;;25.73;16.15;;;3.10;99.90;;;;;;5062673;28;20468;-28
2024/01/19 06:53:27;;;;;;;25.07;13.47;;;3.10;99.90;;;;;;5081684;28;20240;-28
2024/01/19 06:55:53;;;;;;;27.23;14.35;;;3.10;99.90;;;;;;5062903;28;20452;-27
2024/01/19 06:58:20;;;;;;;23.05;14.38;;;3.10;99.90;;;;;;5053028;28;20647;-27
2024/01/19 07:00:47;;;;;;;26.50;14.50;;;3.10;99.90;;;;;;5061989;28;21056;-27
2024/01/19 07:03:16;;;;;;;26.92;15.10;;;3.10;99.90;;;;;;5059221;28;20220;-27
2024/01/19 07:05:42;;;;;;;19.63;13.43;;;3.10;99.90;;;;;;5060925;28;20184;-27
2024/01/19 07:08:36;;;;;;;18.55;12.65;;;3.10;99.90;;;;;;5060939;28;20172;-27
2024/01/19 07:11:05;;;;;;;21.75;13.98;;;3.10;99.90;;;;;;5057790;28;20203;-27
2024/01/19 07:13:34;;;;;;;28.02;13.15;;;3.10;99.90;;;;;;5060916;28;20774;-27
2024/01/19 07:16:01;;;;;;;22.70;14.25;;;3.20;99.90;;;;;;5060467;28;20172;-27
2024/01/19 07:18:29;;;;;;;22.27;15.13;;;3.10;99.90;;;;;;5060316;28;20196;-28
2024/01/19 07:20:55;;;;;;;24.27;13.88;;;3.10;99.90;;;;;;5060144;28;20210;-28
2024/01/19 07:23:22;;;;;;;21.67;13.35;;;3.10;99.90;;;;;;5059525;28;20224;-28
2024/01/19 07:25:50;;;;;;;20.05;13.35;;;3.10;99.90;;;;;;5060192;28;20192;-28
2024/01/19 07:28:16;;;;;;;23.30;12.80;;;3.10;99.90;;;;;;5059982;28;20176;-27
2024/01/19 07:30:43;;;;;;;22.92;13.63;;;3.10;99.90;;;;;;5060352;28;20450;-26
2024/01/19 07:33:09;;;;;;;24.83;14.20;;;3.10;99.90;;;;;;5041283;28;20192;-26
2024/01/19 07:35:35;;;;;;;20.30;12.67;;;3.10;99.90;;;;;;5058015;28;20838;-28
2024/01/19 07:38:01;;;;;;;23.88;14.45;;;3.10;99.90;;;;;;5056601;28;20948;-27
2024/01/19 07:40:30;;;;;;;19.17;13.10;;;3.10;99.90;;;;;;5056618;28;20215;-26
2024/01/19 07:42:56;;;;;;;21.60;13.33;;;3.10;99.90;;;;;;5061308;28;20216;-27
2024/01/19 07:45:31;;;;;;;24.83;14.15;;;3.10;99.90;;;;;;5055571;28;20430;-26
2024/01/19 07:47:57;;;;;;;22.70;13.15;;;3.10;99.90;;;;;;5056692;28;20196;-27
2024/01/19 07:50:28;;;;;;;18.77;12.32;;;3.10;99.90;;;;;;5055549;28;20647;-25
2024/01/19 07:52:56;;;;;;;21.58;13.50;;;3.10;99.90;;;;;;5055939;28;20285;-26
2024/01/19 07:55:23;;;;;;;21.85;13.13;;;3.10;99.90;;;;;;5056453;28;20203;-26
2024/01/19 07:57:49;;;;;;;21.35;13.32;;;3.10;99.90;;;;;;5088638;28;20623;-27
2024/01/19 08:00:16;;;;;;;24.97;15.70;;;3.10;99.90;;;;;;5103709;28;20284;-27
2024/01/19 08:02:44;;;;;;;24.90;14.50;;;3.10;99.90;;;;;;5086065;28;20483;-27
2024/01/19 08:05:10;;;;;;;21.73;13.73;;;3.10;99.90;;;;;;5067440;28;20215;-27
2024/01/19 08:07:40;;;;;;;23.40;14.18;;;3.10;99.90;;;;;;5096049;28;20269;-28
2024/01/19 08:10:09;;;;;;;23.92;14.27;;;3.10;99.90;;;;;;5058850;28;20311;-27
2024/01/19 08:12:35;;;;;;;21.70;14.63;;;3.10;99.90;;;;;;5061075;28;20198;-27
2024/01/19 08:15:02;;;;;;;21.13;13.45;;;3.20;99.90;;;;;;5081473;28;20230;-27
2024/01/19 08:17:28;;;;;;;25.35;15.18;;;3.20;99.90;;;;;;5062019;28;20308;-27
2024/01/19 08:19:55;;;;;;;30.80;14.80;;;3.10;99.90;;;;;;5065002;28;20302;-27
2024/01/19 08:22:23;;;;;;;19.60;12.88;;;3.20;99.90;;;;;;5075950;28;21089;-27
2024/01/19 08:24:50;;;;;;;19.60;13.75;;;3.10;99.90;;;;;;5077421;28;20665;-27
2024/01/19 08:27:19;;;;;;;21.85;13.07;;;3.20;99.90;;;;;;5065456;28;20183;-27
2024/01/19 08:29:47;;;;;;;19.60;13.63;;;3.10;99.90;;;;;;5059378;28;20207;-27
2024/01/19 08:32:16;;;;;;;21.23;12.75;;;3.10;99.90;;;;;;5081626;28;20201;-27
2024/01/19 08:34:43;;;;;;;25.97;14.20;;;3.10;99.90;;;;;;5072906;28;20183;-27
2024/01/19 08:37:09;;;;;;;22.83;14.63;;;3.20;99.90;;;;;;5082433;28;20436;-27
2024/01/19 08:39:38;;;;;;;18.87;12.70;;;3.20;99.90;;;;;;5057648;28;20214;-27
2024/01/19 08:42:08;;;;;;;22.20;14.60;;;3.20;99.90;;;;;;5090753;28;20533;-27
2024/01/19 08:44:35;;;;;;;21.73;13.93;;;3.20;99.90;;;;;;5074943;28;20726;-27
2024/01/19 08:47:04;;;;;;;20.85;14.02;;;3.20;99.90;;;;;;5055945;28;20229;-27
2024/01/19 08:49:30;;;;;;;28.13;15.05;;;3.20;99.90;;;;;;5075984;28;20195;-27
2024/01/19 08:51:58;;;;;;;20.00;13.50;;;3.10;99.90;;;;;;5039630;28;20290;-26
2024/01/19 08:54:27;;;;;;;16.13;11.73;;;3.20;99.90;;;;;;5068076;28;20237;-27
2024/01/19 08:56:54;;;;;;;26.00;15.18;;;3.20;99.90;;;;;;5078076;28;20234;-27
2024/01/19 08:59:22;;;;;;;22.98;14.68;;;3.20;99.90;;;;;;5075425;28;21075;-27
2024/01/19 09:01:53;;;;;;;21.85;13.75;;;3.20;99.90;;;;;;5052559;28;20920;-27
2024/01/19 09:04:19;;;;;;;21.52;14.27;;;3.20;99.90;;;;;;5076369;28;20229;-28
2024/01/19 09:06:45;;;;;;;20.35;13.80;;;3.20;99.90;;;;;;5059249;28;20558;-27
2024/01/19 09:09:13;;;;;;;23.95;14.55;;;3.20;99.90;;;;;;5077042;28;20658;-27
2024/01/19 09:11:39;;;;;;;27.40;14.60;;;3.20;99.90;;;;;;5057629;28;20201;-27
2024/01/19 09:14:09;;;;;;;20.83;14.20;;;3.20;99.90;;;;;;5073242;28;20715;-28
2024/01/19 09:16:40;;;;;;;22.48;15.02;;;3.20;99.90;;;;;;5045989;28;20183;-28
2024/01/19 09:19:07;;;;;;;24.55;15.07;;;3.20;99.90;;;;;;5058618;28;20211;-28
2024/01/19 09:21:35;;;;;;;26.40;16.08;;;3.20;99.90;;;;;;5072140;28;20188;-26
2024/01/19 09:24:01;;;;;;;20.67;14.15;;;3.20;99.90;;;;;;5041680;28;20713;-28
2024/01/19 09:26:28;;;;;;;23.30;15.15;;;3.20;99.90;;;;;;5062944;28;20199;-27
2024/01/19 09:28:54;;;;;;;23.17;15.77;;;3.20;99.90;;;;;;5075105;28;20219;-27
2024/01/19 09:31:23;;;;;;;28.93;15.40;;;3.20;99.90;;;;;;5071186;28;20187;-27
2024/01/19 09:33:49;;;;;;;28.50;16.00;;;3.20;99.90;;;;;;5072467;28;20488;-27
2024/01/19 09:36:20;;;;;;;23.02;13.93;;;3.20;99.90;;;;;;5054095;28;20206;-27
2024/01/19 09:38:46;;;;;;;23.15;14.57;;;3.20;99.90;;;;;;5056029;28;20203;-27
2024/01/19 09:41:33;;;;;;;21.93;14.73;;;3.20;99.90;;;;;;5038952;28;20241;-27
2024/01/19 09:44:06;;;;;;;23.55;16.05;;;3.20;99.90;;;;;;5062589;28;20461;-27
2024/01/19 09:46:42;;;;;;;28.63;16.15;;;3.20;99.90;;;;;;5068983;28;20175;-27
2024/01/19 09:49:24;;;;;;;25.00;13.98;;;3.20;99.90;;;;;;5074356;28;20199;-27
2024/01/19 09:52:10;;;;;;;22.13;14.75;;;3.20;99.90;;;;;;5072309;28;20188;-27
2024/01/19 09:54:37;;;;;;;28.23;15.70;;;3.20;99.90;;;;;;5053289;28;20192;-27
2024/01/19 09:57:06;;;;;;;22.40;15.55;;;3.20;99.90;;;;;;5077340;28;20765;-27
2024/01/19 09:59:34;;;;;;;25.30;15.75;;;3.20;99.90;;;;;;5057962;28;20671;-28
2024/01/19 10:02:00;;;;;;;24.07;16.23;;;3.20;99.90;;;;;;5056682;28;20191;-26
2024/01/19 10:04:34;;;;;;;21.92;14.80;;;3.20;99.90;;;;;;5057945;28;20487;-27
2024/01/19 10:07:03;;;;;;;26.08;15.77;;;3.20;99.90;;;;;;5059291;28;20211;-27
2024/01/19 10:09:31;;;;;;;25.58;16.50;;;3.20;99.90;;;;;;5075803;28;20691;-25
2024/01/19 10:11:57;;;;;;;25.23;15.77;;;3.20;99.90;;;;;;5075843;28;20195;-26
2024/01/19 10:14:25;;;;;;;28.57;17.17;;;3.20;99.90;;;;;;5055401;28;20191;-26
2024/01/19 10:16:55;;;;;;;25.50;16.13;;;3.20;99.90;;;;;;5060161;28;20448;-27
2024/01/19 10:19:23;;;;;;;26.98;15.95;;;3.20;99.90;;;;;;5056978;28;20207;-27
2024/01/19 10:21:52;;;;;;;26.25;16.13;;;3.20;99.90;;;;;;5063426;28;20175;-28
2024/01/19 10:24:21;;;;;;;22.77;15.07;;;3.20;99.90;;;;;;5082997;28;20242;-27
2024/01/19 10:26:55;;;;;;;26.20;16.92;;;3.20;99.90;;;;;;5065137;28;20272;-27
2024/01/19 10:29:22;;;;;;;27.85;15.80;;;3.20;99.90;;;;;;5083630;28;20197;-27
2024/01/19 10:31:52;;;;;;;27.10;16.02;;;3.20;99.90;;;;;;5082091;28;20171;-27
2024/01/19 10:34:27;;;;;;;23.40;15.57;;;3.20;99.90;;;;;;5070767;28;20184;-26
2024/01/19 10:36:53;;;;;;;21.98;14.60;;;3.20;99.90;;;;;;5043256;28;20742;-27
2024/01/19 10:39:29;;;;;;;24.27;16.08;;;3.20;99.90;;;;;;5066303;28;20690;-27
2024/01/19 10:42:15;;;;;;;23.73;16.30;;;3.20;99.90;;;;;;5072604;28;20278;-27
2024/01/19 10:44:41;;;;;;;24.38;14.63;;;3.20;99.90;;;;;;5053672;28;20211;-28
2024/01/19 10:47:10;;;;;;;24.90;15.70;;;3.20;99.90;;;;;;5051726;28;20732;-27
2024/01/19 10:49:36;;;;;;;21.02;14.50;;;3.20;99.90;;;;;;5070658;28;20275;-27
2024/01/19 10:52:05;;;;;;;25.05;14.48;;;3.20;99.90;;;;;;5073409;28;20205;-27
2024/01/19 10:54:31;;;;;;;23.17;14.60;;;3.20;99.90;;;;;;5057882;28;20179;-27
2024/01/19 10:57:04;;;;;;;23.43;14.93;;;3.20;99.90;;;;;;5075964;28;20199;-27
2024/01/19 10:59:34;;;;;;;24.20;15.73;;;3.20;99.90;;;;;;5053006;28;20433;-27
2024/01/19 11:02:02;;;;;;;22.20;14.90;;;3.20;99.90;;;;;;5068006;28;20242;-27
2024/01/19 11:04:28;;;;;;;21.70;13.80;;;3.30;99.90;;;;;;5073647;28;20230;-27
2024/01/19 11:06:55;;;;;;;23.10;14.85;;;3.30;99.90;;;;;;5075512;28;20578;-27
2024/01/19 11:09:21;;;;;;;23.95;14.30;;;3.30;99.90;;;;;;5075957;28;20207;-27
2024/01/19 11:11:53;;;;;;;22.07;15.47;;;3.30;99.90;;;;;;5060624;28;20187;-28
2024/01/19 11:14:23;;;;;;;25.38;15.10;;;3.30;99.90;;;;;;5077695;28;20436;-27
2024/01/19 11:16:53;;;;;;;22.88;14.55;;;3.30;99.90;;;;;;5073144;28;20183;-27
2024/01/19 11:19:23;;;;;;;23.38;15.95;;;3.30;99.90;;;;;;5078763;28;20257;-27
2024/01/19 11:21:49;;;;;;;21.55;14.23;;;3.30;99.90;;;;;;5078855;28;20191;-27
2024/01/19 11:24:18;;;;;;;24.48;15.60;;;3.30;99.90;;;;;;5079216;28;20306;-27
2024/01/19 11:27:06;;;;;;;21.60;15.05;;;3.30;99.90;;;;;;5059780;28;20206;-27
2024/01/19 11:29:38;;;;;;;25.05;15.48;;;3.30;99.90;;;;;;5059198;28;20210;-26
2024/01/19 11:32:04;;;;;;;26.67;15.63;;;3.30;99.90;;;;;;5078149;28;20904;-27
2024/01/19 11:34:47;;;;;;;24.02;15.23;;;3.30;99.90;;;;;;5078194;28;20644;-27
2024/01/19 11:37:43;;;;;;;24.02;15.15;;;3.30;99.90;;;;;;5075863;28;20961;-29
2024/01/19 11:40:24;;;;;;;23.85;14.85;;;3.30;99.90;;;;;;5043072;28;20531;-26
2024/01/19 11:42:51;;;;;;;22.60;14.57;;;3.30;99.90;;;;;;5072977;28;20305;-27
2024/01/19 11:45:30;;;;;;;21.83;13.45;;;3.30;99.90;;;;;;5043805;28;20198;-27
2024/01/19 11:47:56;;;;;;;21.67;13.27;;;3.30;99.90;;;;;;5077605;28;21076;-26
2024/01/19 11:50:45;;;;;;;21.35;14.07;;;3.30;99.90;;;;;;5056504;28;20246;-27
2024/01/19 11:53:12;;;;;;;23.30;14.13;;;3.30;99.90;;;;;;5056561;28;20179;-27
2024/01/19 11:55:39;;;;;;;20.33;14.38;;;3.30;99.90;;;;;;5076313;28;20654;-27
2024/01/19 11:58:31;;;;;;;21.23;14.63;;;3.30;99.90;;;;;;5042189;28;20211;-27
2024/01/19 12:01:02;;;;;;;26.50;13.88;;;3.40;99.90;;;;;;5063772;28;20219;-27
2024/01/19 12:03:28;;;;;;;22.02;14.10;;;3.40;99.90;;;;;;5077367;28;20216;-28
2024/01/19 12:05:57;;;;;;;22.67;13.18;;;3.40;99.90;;;;;;5078202;28;20286;-27
2024/01/19 12:08:24;;;;;;;23.08;14.27;;;3.40;99.90;;;;;;5056214;28;20930;-27
2024/01/19 12:11:11;;;;;;;19.23;13.02;;;3.40;99.90;;;;;;5072699;28;20195;-27
2024/01/19 12:13:39;;;;;;;22.85;14.55;;;3.40;99.90;;;;;;5075278;28;20642;-27
2024/01/19 12:16:06;;;;;;;21.65;12.93;;;3.40;99.90;;;;;;5058285;28;20329;-27
2024/01/19 12:18:37;;;;;;;24.33;14.30;;;3.40;99.90;;;;;;5058778;28;20192;-27
2024/01/19 12:21:04;;;;;;;21.38;13.65;;;3.40;99.90;;;;;;5058119;28;21007;-27
2024/01/19 12:23:35;;;;;;;18.85;12.35;;;3.40;99.90;;;;;;5056918;28;20219;-27
2024/01/19 12:26:03;;;;;;;18.90;13.00;;;3.40;99.90;;;;;;5060168;28;20198;-27
2024/01/19 12:28:31;;;;;;;19.33;13.18;;;3.40;99.90;;;;;;5079013;28;20651;-27
2024/01/19 12:31:02;;;;;;;20.33;13.45;;;3.40;99.90;;;;;;5061948;28;20215;-27
2024/01/19 12:33:29;;;;;;;19.63;12.23;;;3.50;99.90;;;;;;5078123;28;20202;-27
2024/01/19 12:36:13;;;;;;;25.23;14.40;;;3.50;99.90;;;;;;5061377;28;20274;-27
2024/01/19 12:38:40;;;;;;;20.77;12.80;;;3.50;99.90;;;;;;5077711;28;20222;-28
2024/01/19 12:41:18;;;;;;;20.05;12.82;;;3.50;99.90;;;;;;5043224;28;20907;-27
2024/01/19 12:43:46;;;;;;;21.52;13.00;;;3.50;99.90;;;;;;5076372;28;20211;-27